Time;durP1;ratioP1;P1;durP2;ratioP2;P2;SDS_P1;SDS_P2;PMS_P1;PMS_P2;Temp;Humidity;BMP_temperature;BMP_pressure;BME280_temperature;BME280_humidity;BME280_pressure;Samples;Min_cycle;Max_cycle;Signal;HPM_P1;HPM_P2
2024/04/11 00:01:23;;;;;;;3.20;1.43;;;8.60;91.10;;;;;;5459369;26;20632;-90
2024/04/11 00:03:52;;;;;;;2.60;1.63;;;8.60;91.10;;;;;;5472407;26;20560;-89
2024/04/11 00:06:18;;;;;;;3.73;1.53;;;8.60;90.90;;;;;;5471321;26;20934;-89
2024/04/11 00:08:47;;;;;;;2.83;1.57;;;8.60;90.90;;;;;;5472909;26;20652;-89
2024/04/11 00:11:13;;;;;;;5.10;1.67;;;8.60;90.80;;;;;;5475257;26;20565;-89
2024/04/11 00:13:45;;;;;;;4.40;1.17;;;8.60;90.80;;;;;;5475452;26;20565;-89
2024/04/11 00:16:11;;;;;;;2.80;1.40;;;8.60;90.70;;;;;;5471025;26;20699;-89
2024/04/11 00:18:41;;;;;;;2.30;1.33;;;8.40;90.70;;;;;;5472015;26;20553;-89
2024/04/11 00:21:07;;;;;;;2.43;1.43;;;8.00;91.90;;;;;;5469969;26;21175;-89
2024/04/11 00:23:36;;;;;;;3.10;1.63;;;8.00;92.60;;;;;;5471684;26;20596;-89
2024/04/11 00:26:04;;;;;;;3.80;1.73;;;7.70;93.80;;;;;;5471307;26;20561;-90
2024/04/11 00:28:33;;;;;;;5.00;2.10;;;7.60;94.40;;;;;;5471628;26;20549;-90
2024/04/11 00:31:02;;;;;;;4.27;2.03;;;7.40;95.20;;;;;;5475461;26;21077;-89
2024/04/11 00:33:31;;;;;;;4.30;1.97;;;7.40;95.60;;;;;;5474374;26;20565;-90
2024/04/11 00:35:59;;;;;;;3.73;1.40;;;7.50;95.40;;;;;;5470969;26;20572;-89
2024/04/11 00:38:28;;;;;;;2.67;1.93;;;7.50;95.50;;;;;;5470890;26;20901;-89
2024/04/11 00:40:55;;;;;;;4.47;2.27;;;7.60;95.40;;;;;;5463889;26;20700;-89
2024/04/11 00:43:24;;;;;;;5.90;1.70;;;7.70;94.70;;;;;;5470116;26;20620;-89
2024/04/11 00:45:50;;;;;;;3.30;1.73;;;7.70;94.90;;;;;;5470734;26;20565;-89
2024/04/11 00:48:23;;;;;;;4.03;1.77;;;7.70;94.90;;;;;;5443723;26;20556;-89
2024/04/11 00:50:52;;;;;;;3.93;1.93;;;7.80;94.40;;;;;;5465984;26;21075;-89
2024/04/11 00:53:22;;;;;;;3.40;2.73;;;7.80;94.10;;;;;;5469852;26;20565;-90
2024/04/11 00:55:49;;;;;;;2.27;1.63;;;7.80;94.40;;;;;;5475910;25;20695;-88
2024/04/11 00:58:18;;;;;;;4.17;1.83;;;7.80;94.20;;;;;;5472778;26;20564;-89
2024/04/11 01:00:45;;;;;;;3.37;2.00;;;7.80;93.90;;;;;;5474056;26;20679;-89
2024/04/11 01:03:15;;;;;;;4.50;2.03;;;7.70;94.30;;;;;;5473588;26;21155;-90
2024/04/11 01:05:44;;;;;;;3.17;1.67;;;7.70;94.70;;;;;;5470258;26;20604;-89
2024/04/11 01:08:14;;;;;;;3.00;1.63;;;7.70;94.10;;;;;;5469580;26;20577;-89
2024/04/11 01:10:40;;;;;;;3.23;2.10;;;7.60;94.30;;;;;;5471540;26;20605;-90
2024/04/11 01:13:09;;;;;;;2.80;1.60;;;7.70;94.20;;;;;;5470511;26;20561;-90
2024/04/11 01:15:37;;;;;;;5.67;1.87;;;7.70;94.60;;;;;;5471609;26;20557;-89
2024/04/11 01:18:06;;;;;;;4.00;1.60;;;7.60;94.80;;;;;;5473242;26;20613;-90
2024/04/11 01:20:33;;;;;;;4.57;2.50;;;7.60;94.90;;;;;;5471930;26;20663;-90
2024/04/11 01:23:07;;;;;;;5.03;1.77;;;7.50;94.90;;;;;;5469722;26;20565;-89
2024/04/11 01:25:33;;;;;;;5.50;1.67;;;7.50;95.60;;;;;;5469593;26;20567;-89
2024/04/11 01:28:02;;;;;;;4.03;1.70;;;7.50;95.20;;;;;;5466283;26;20997;-91
2024/04/11 01:30:28;;;;;;;2.60;1.60;;;7.40;95.10;;;;;;5476235;26;20607;-90
2024/04/11 01:33:00;;;;;;;2.73;1.80;;;7.40;95.80;;;;;;5472118;26;21194;-90
2024/04/11 01:35:27;;;;;;;1.90;1.70;;;7.40;95.80;;;;;;5469777;26;20564;-90
2024/04/11 01:37:57;;;;;;;7.20;1.87;;;7.40;95.70;;;;;;5451272;26;20682;-90
2024/04/11 01:40:29;;;;;;;3.83;1.73;;;7.20;95.30;;;;;;5459925;26;20568;-90
2024/04/11 01:42:58;;;;;;;3.13;1.83;;;6.90;96.30;;;;;;5451257;26;20998;-90
2024/04/11 01:45:26;;;;;;;1.83;1.67;;;6.70;97.50;;;;;;5477931;25;21116;-90
2024/04/11 01:47:55;;;;;;;2.47;1.60;;;6.80;98.00;;;;;;5467464;26;20569;-90
2024/04/11 01:50:21;;;;;;;4.53;2.10;;;7.00;97.00;;;;;;5475236;26;20652;-90
2024/04/11 01:52:50;;;;;;;5.33;2.40;;;6.80;97.00;;;;;;5472060;26;20667;-89
2024/04/11 01:55:16;;;;;;;3.33;2.27;;;6.80;97.10;;;;;;5473406;26;21092;-90
2024/04/11 01:57:48;;;;;;;2.77;1.63;;;6.80;97.10;;;;;;5474670;26;20963;-89
2024/04/11 02:00:14;;;;;;;3.93;2.57;;;6.90;96.90;;;;;;5472211;26;20560;-89
2024/04/11 02:02:49;;;;;;;1.73;1.63;;;6.90;96.60;;;;;;5474110;26;20999;-90
2024/04/11 02:05:16;;;;;;;2.07;1.60;;;6.90;96.50;;;;;;5468319;26;20619;-90
2024/04/11 02:07:45;;;;;;;3.90;1.80;;;6.90;95.90;;;;;;5472763;26;20588;-89
2024/04/11 02:10:11;;;;;;;2.53;2.00;;;6.80;96.30;;;;;;5476186;26;20601;-88
2024/04/11 02:12:41;;;;;;;3.63;2.30;;;6.70;96.50;;;;;;5476398;26;20642;-88
2024/04/11 02:15:10;;;;;;;3.83;2.60;;;6.80;96.70;;;;;;5466946;26;20568;-89
2024/04/11 02:17:39;;;;;;;1.77;1.30;;;6.80;96.60;;;;;;5472772;26;21101;-90
2024/04/11 02:20:10;;;;;;;3.20;1.83;;;6.80;96.70;;;;;;5475468;26;20687;-89
2024/04/11 02:22:40;;;;;;;5.20;2.00;;;6.90;96.30;;;;;;5474849;26;20628;-87
2024/04/11 02:25:07;;;;;;;4.83;2.43;;;6.80;96.50;;;;;;5475397;26;20880;-88
2024/04/11 02:27:36;;;;;;;4.23;1.63;;;6.80;96.40;;;;;;5472945;26;20561;-89
2024/04/11 02:30:05;;;;;;;3.00;1.53;;;6.80;96.00;;;;;;5472787;26;20979;-88
2024/04/11 02:32:41;;;;;;;3.40;1.40;;;6.60;96.50;;;;;;5465370;26;20556;-89
2024/04/11 02:35:11;;;;;;;2.50;1.90;;;6.40;97.20;;;;;;5472039;26;20581;-88
2024/04/11 02:37:40;;;;;;;1.83;1.73;;;6.30;97.80;;;;;;5454763;26;20558;-88
2024/04/11 02:40:07;;;;;;;4.03;1.63;;;6.30;98.20;;;;;;5479613;26;20673;-88
2024/04/11 02:42:38;;;;;;;2.80;1.60;;;6.30;97.90;;;;;;5469016;26;20643;-89
2024/04/11 02:45:07;;;;;;;3.83;1.90;;;6.40;98.00;;;;;;5474823;26;20564;-89
2024/04/11 02:47:39;;;;;;;2.30;2.10;;;6.40;98.00;;;;;;5466887;26;20560;-88
2024/04/11 02:50:06;;;;;;;4.03;1.80;;;6.40;97.80;;;;;;5472184;26;20564;-89
2024/04/11 02:52:35;;;;;;;4.30;1.77;;;6.50;97.50;;;;;;5473073;26;20678;-89
2024/04/11 02:55:02;;;;;;;2.70;2.07;;;6.60;97.10;;;;;;5474804;26;20663;-89
2024/04/11 02:57:32;;;;;;;3.60;1.80;;;6.60;97.10;;;;;;5475046;26;20572;-89
2024/04/11 02:59:59;;;;;;;4.37;1.70;;;6.40;97.20;;;;;;5462802;26;20578;-89
2024/04/11 03:02:29;;;;;;;3.03;1.47;;;6.40;97.50;;;;;;5472024;26;20662;-89
2024/04/11 03:04:57;;;;;;;3.33;1.90;;;6.40;97.80;;;;;;5471755;26;20561;-89
2024/04/11 03:07:27;;;;;;;2.03;1.47;;;6.50;97.60;;;;;;5476703;26;20589;-89
2024/04/11 03:09:54;;;;;;;2.60;1.70;;;6.50;97.40;;;;;;5474277;26;20561;-90
2024/04/11 03:12:23;;;;;;;2.60;2.00;;;6.60;97.40;;;;;;5471778;26;20578;-89
2024/04/11 03:14:50;;;;;;;3.70;1.80;;;6.60;97.20;;;;;;5471891;26;20624;-89
2024/04/11 03:17:19;;;;;;;2.87;2.37;;;6.60;96.60;;;;;;5473231;26;20592;-89
2024/04/11 03:19:45;;;;;;;1.97;1.47;;;6.50;96.80;;;;;;5476001;26;20612;-89
2024/04/11 03:22:16;;;;;;;5.23;2.00;;;6.40;97.20;;;;;;5475656;26;20969;-89
2024/04/11 03:24:44;;;;;;;2.87;1.73;;;6.40;97.70;;;;;;5472067;26;20666;-89
2024/04/11 03:27:13;;;;;;;3.03;1.97;;;6.50;97.10;;;;;;5471098;26;20634;-88
2024/04/11 03:29:43;;;;;;;7.20;2.37;;;6.50;97.50;;;;;;5465812;26;20552;-88
2024/04/11 03:32:14;;;;;;;2.67;1.80;;;6.40;97.50;;;;;;5472415;26;20642;-88
2024/04/11 03:34:40;;;;;;;3.40;2.30;;;6.40;97.50;;;;;;5474760;26;21096;-89
2024/04/11 03:37:09;;;;;;;2.73;1.50;;;6.40;97.50;;;;;;5472773;26;20609;-88
2024/04/11 03:39:38;;;;;;;2.90;1.50;;;6.30;97.70;;;;;;5465524;26;20557;-89
2024/04/11 03:42:08;;;;;;;3.13;2.17;;;6.30;97.90;;;;;;5471511;26;20561;-88
2024/04/11 03:44:39;;;;;;;2.77;1.80;;;6.30;97.90;;;;;;5472001;26;20564;-89
2024/04/11 03:47:08;;;;;;;1.70;1.60;;;6.20;98.10;;;;;;5474940;26;20671;-89
2024/04/11 03:49:39;;;;;;;1.73;1.63;;;6.30;98.20;;;;;;5474646;26;20564;-89
2024/04/11 03:52:06;;;;;;;4.40;2.07;;;6.30;97.70;;;;;;5471105;26;20654;-88
2024/04/11 03:54:37;;;;;;;1.33;1.10;;;6.30;97.60;;;;;;5471027;26;20673;-89
2024/04/11 03:57:07;;;;;;;4.47;1.90;;;6.40;97.30;;;;;;5469800;26;20560;-89
2024/04/11 03:59:36;;;;;;;3.37;2.23;;;6.30;96.90;;;;;;5470942;26;21085;-88
2024/04/11 04:02:02;;;;;;;2.80;1.70;;;6.20;97.40;;;;;;5465039;26;20613;-90
2024/04/11 04:04:32;;;;;;;1.83;1.60;;;6.20;98.00;;;;;;5471517;26;20653;-90
2024/04/11 04:06:58;;;;;;;2.23;1.43;;;6.20;97.70;;;;;;5472982;26;22614;-89
2024/04/11 04:09:27;;;;;;;2.60;2.03;;;6.30;97.10;;;;;;5474945;26;20568;-89
2024/04/11 04:11:53;;;;;;;3.30;2.20;;;6.30;97.40;;;;;;5474568;26;20561;-89
2024/04/11 04:14:24;;;;;;;3.20;1.93;;;6.10;98.20;;;;;;5472724;26;20680;-89
2024/04/11 04:16:51;;;;;;;4.53;2.10;;;6.10;98.60;;;;;;5469876;26;20557;-89
2024/04/11 04:19:19;;;;;;;2.00;1.80;;;6.20;98.50;;;;;;5471838;26;20572;-89
2024/04/11 04:21:46;;;;;;;3.23;1.90;;;6.20;98.00;;;;;;5475096;26;20564;-89
2024/04/11 04:24:16;;;;;;;3.43;1.97;;;6.10;97.50;;;;;;5475114;26;20597;-89
2024/04/11 04:26:42;;;;;;;3.10;2.07;;;6.20;97.40;;;;;;5470215;26;20564;-89
2024/04/11 04:29:11;;;;;;;5.87;2.43;;;6.10;97.20;;;;;;5470874;26;20614;-90
2024/04/11 04:31:42;;;;;;;4.27;2.40;;;5.90;98.00;;;;;;5472565;26;20624;-88
2024/04/11 04:34:12;;;;;;;2.87;2.27;;;5.80;99.00;;;;;;5472965;26;20565;-89
2024/04/11 04:36:46;;;;;;;6.00;3.13;;;5.80;99.00;;;;;;5472456;26;20626;-89
2024/04/11 04:39:13;;;;;;;3.93;2.10;;;5.90;98.70;;;;;;5466252;26;20569;-89
2024/04/11 04:41:42;;;;;;;2.03;1.90;;;5.90;98.50;;;;;;5471302;26;20628;-88
2024/04/11 04:44:08;;;;;;;3.33;2.10;;;6.00;98.50;;;;;;5475547;26;20573;-89
2024/04/11 04:46:39;;;;;;;3.37;1.90;;;6.00;98.50;;;;;;5473811;26;20563;-89
2024/04/11 04:49:09;;;;;;;2.40;2.00;;;5.60;98.50;;;;;;5465565;26;20933;-89
2024/04/11 04:51:39;;;;;;;6.60;2.23;;;5.40;99.00;;;;;;5470732;26;20565;-89
2024/04/11 04:54:08;;;;;;;2.30;1.63;;;5.50;99.00;;;;;;5455012;26;20568;-89
2024/04/11 04:56:39;;;;;;;2.33;2.13;;;5.60;99.00;;;;;;5470731;26;20545;-89
2024/04/11 04:59:06;;;;;;;3.53;1.83;;;5.50;99.00;;;;;;5473910;26;21167;-89
2024/04/11 05:01:36;;;;;;;2.50;1.93;;;5.40;99.00;;;;;;5473157;26;20564;-88
2024/04/11 05:04:02;;;;;;;3.17;2.33;;;5.30;99.00;;;;;;5467772;26;20561;-89
2024/04/11 05:06:35;;;;;;;4.57;2.17;;;5.40;99.00;;;;;;5470151;26;20667;-89
2024/04/11 05:09:01;;;;;;;6.20;2.23;;;5.50;99.00;;;;;;5463662;26;20568;-89
2024/04/11 05:11:31;;;;;;;2.50;1.97;;;5.50;99.00;;;;;;5470083;26;21230;-89
2024/04/11 05:13:58;;;;;;;3.50;2.10;;;5.60;99.00;;;;;;5456811;26;21522;-89
2024/04/11 05:16:28;;;;;;;4.37;1.90;;;5.70;99.00;;;;;;5469369;26;20565;-88
2024/04/11 05:18:54;;;;;;;2.83;2.00;;;5.80;99.00;;;;;;5470855;26;20617;-88
2024/04/11 05:21:24;;;;;;;2.30;2.10;;;5.80;99.00;;;;;;5473994;26;21119;-89
2024/04/11 05:23:54;;;;;;;35.07;4.80;;;5.90;99.00;;;;;;5473367;26;20649;-89
2024/04/11 05:26:25;;;;;;;7.07;2.20;;;6.00;99.00;;;;;;5464930;26;20557;-90
2024/04/11 05:28:52;;;;;;;3.10;2.77;;;6.00;99.00;;;;;;5474619;26;20859;-89
2024/04/11 05:31:25;;;;;;;5.03;2.67;;;6.10;99.00;;;;;;5476718;26;20569;-89
2024/04/11 05:33:53;;;;;;;4.90;2.80;;;6.10;99.00;;;;;;5475909;26;20552;-88
2024/04/11 05:36:25;;;;;;;7.73;3.63;;;6.10;99.00;;;;;;5472904;26;20611;-89
2024/04/11 05:38:53;;;;;;;3.47;2.40;;;6.20;99.00;;;;;;5475915;26;20564;-88
2024/04/11 05:41:24;;;;;;;2.40;2.20;;;6.30;99.00;;;;;;5476624;26;20719;-88
2024/04/11 05:43:51;;;;;;;4.30;2.23;;;6.40;99.00;;;;;;5467346;26;20609;-88
2024/04/11 05:46:22;;;;;;;3.13;2.00;;;6.40;99.00;;;;;;5472107;26;20557;-88
2024/04/11 05:48:49;;;;;;;3.97;2.20;;;6.50;98.60;;;;;;5462449;26;20597;-88
2024/04/11 05:51:19;;;;;;;7.67;2.90;;;6.50;98.60;;;;;;5474469;26;20658;-88
2024/04/11 05:53:46;;;;;;;2.50;1.97;;;6.50;98.60;;;;;;5473651;26;20560;-88
2024/04/11 05:56:18;;;;;;;2.90;2.00;;;6.50;98.60;;;;;;5475965;26;20564;-88
2024/04/11 05:58:45;;;;;;;5.20;2.33;;;6.60;98.70;;;;;;5475509;26;20667;-88
2024/04/11 06:01:16;;;;;;;3.07;2.47;;;6.60;98.60;;;;;;5472842;26;20552;-88
2024/04/11 06:03:46;;;;;;;3.57;2.03;;;6.70;98.40;;;;;;5472279;26;20593;-88
2024/04/11 06:06:19;;;;;;;3.13;1.93;;;6.70;98.70;;;;;;5476797;26;20638;-88
2024/04/11 06:08:46;;;;;;;5.03;2.50;;;6.80;98.60;;;;;;5466360;26;20561;-88
2024/04/11 06:11:18;;;;;;;3.57;2.30;;;6.80;98.40;;;;;;5472569;26;20560;-88
2024/04/11 06:13:47;;;;;;;3.23;2.27;;;6.90;98.50;;;;;;5473085;26;21109;-88
2024/04/11 06:16:16;;;;;;;3.27;1.90;;;6.90;98.40;;;;;;5476337;26;21124;-86
2024/04/11 06:18:43;;;;;;;2.57;2.27;;;7.00;98.30;;;;;;5475362;26;20645;-88
2024/04/11 06:21:13;;;;;;;4.47;2.23;;;7.10;98.00;;;;;;5471912;26;20552;-88
2024/04/11 06:23:39;;;;;;;3.87;2.13;;;7.20;97.80;;;;;;5471915;26;20636;-88
2024/04/11 06:26:14;;;;;;;3.70;2.00;;;7.30;97.70;;;;;;5473180;26;21207;-87
2024/04/11 06:28:44;;;;;;;4.70;2.53;;;7.30;97.50;;;;;;5474344;26;20678;-88
2024/04/11 06:31:14;;;;;;;2.07;1.80;;;7.30;97.50;;;;;;5467576;26;20916;-88
2024/04/11 06:33:41;;;;;;;3.10;2.27;;;7.30;97.90;;;;;;5471795;26;20560;-89
2024/04/11 06:36:10;;;;;;;4.17;2.50;;;7.30;98.10;;;;;;5473502;26;21136;-89
2024/04/11 06:38:37;;;;;;;2.97;2.10;;;7.40;97.40;;;;;;5475103;26;20751;-88
2024/04/11 06:41:08;;;;;;;4.90;2.70;;;7.40;97.00;;;;;;5475216;26;20553;-89
2024/04/11 06:43:35;;;;;;;4.00;2.20;;;7.40;98.10;;;;;;5471339;26;20945;-89
2024/04/11 06:46:10;;;;;;;3.40;2.33;;;7.50;99.00;;;;;;5472941;26;20537;-88
2024/04/11 06:48:36;;;;;;;2.50;2.30;;;7.50;98.80;;;;;;5471097;26;20663;-88
2024/04/11 06:51:06;;;;;;;4.40;2.67;;;7.50;98.80;;;;;;5471706;26;21151;-87
2024/04/11 06:53:32;;;;;;;3.13;2.00;;;7.50;98.50;;;;;;5450090;26;20614;-88
2024/04/11 06:56:07;;;;;;;4.30;2.63;;;7.60;98.60;;;;;;5472377;26;21270;-88
2024/04/11 06:58:36;;;;;;;5.23;2.50;;;7.60;99.00;;;;;;5456270;26;20557;-88
2024/04/11 07:01:13;;;;;;;3.00;2.00;;;7.70;99.00;;;;;;5472803;26;20620;-88
2024/04/11 07:03:40;;;;;;;3.57;2.50;;;7.70;99.00;;;;;;5475874;26;20564;-88
2024/04/11 07:06:21;;;;;;;4.53;2.70;;;7.80;99.00;;;;;;5466803;26;20679;-87
2024/04/11 07:08:48;;;;;;;6.17;3.23;;;7.90;99.00;;;;;;5430409;26;20617;-88
2024/04/11 07:11:27;;;;;;;4.63;3.70;;;7.90;99.00;;;;;;5435160;26;20613;-87
2024/04/11 07:13:54;;;;;;;5.20;3.20;;;8.00;99.00;;;;;;5435873;26;20559;-87
2024/04/11 07:16:29;;;;;;;5.47;3.13;;;8.00;99.00;;;;;;5448059;26;20560;-85
2024/04/11 07:18:55;;;;;;;4.53;2.93;;;8.00;99.00;;;;;;5468682;26;20635;-86
2024/04/11 07:21:26;;;;;;;4.93;2.83;;;8.00;99.00;;;;;;5474934;26;21116;-86
2024/04/11 07:23:54;;;;;;;4.83;3.33;;;8.00;99.00;;;;;;5473980;26;20644;-86
2024/04/11 07:26:22;;;;;;;6.13;3.10;;;8.00;99.00;;;;;;5458620;26;20682;-87
2024/04/11 07:28:49;;;;;;;4.17;3.30;;;8.10;99.00;;;;;;5471371;26;20612;-87
2024/04/11 07:31:21;;;;;;;6.23;3.70;;;8.10;99.00;;;;;;5473774;26;21086;-85
2024/04/11 07:33:50;;;;;;;5.87;3.17;;;8.10;99.00;;;;;;5474266;26;20608;-87
2024/04/11 07:36:22;;;;;;;6.23;3.30;;;8.20;99.00;;;;;;5462872;26;20601;-87
2024/04/11 07:38:49;;;;;;;4.50;3.63;;;8.30;98.70;;;;;;5470582;26;20621;-87
2024/04/11 07:41:23;;;;;;;5.70;3.20;;;8.30;98.00;;;;;;5471252;26;21074;-86
2024/04/11 07:43:51;;;;;;;4.50;2.97;;;8.40;97.80;;;;;;5474904;26;20944;-88
2024/04/11 07:46:22;;;;;;;8.37;3.50;;;8.50;97.70;;;;;;5463497;26;20682;-86
2024/04/11 07:48:51;;;;;;;3.83;2.43;;;8.60;97.30;;;;;;5470530;26;21109;-87
2024/04/11 07:51:20;;;;;;;4.40;2.63;;;8.60;95.30;;;;;;5461254;26;20628;-86
2024/04/11 07:53:47;;;;;;;3.20;2.40;;;8.70;96.60;;;;;;5470705;26;20548;-87
2024/04/11 07:56:20;;;;;;;9.63;2.50;;;8.80;95.70;;;;;;5471927;26;20608;-87
2024/04/11 07:58:47;;;;;;;4.37;3.77;;;8.80;94.90;;;;;;5472387;26;20729;-87
2024/04/11 08:04:35;;;;;;;4.47;2.57;;;9.10;94.80;;;;;;5430163;26;20601;-87
2024/04/11 08:07:01;;;;;;;2.80;2.07;;;9.20;94.30;;;;;;5470728;26;20581;-86
2024/04/11 08:09:44;;;;;;;2.77;2.03;;;9.30;93.70;;;;;;5470812;26;20557;-87
2024/04/11 08:12:10;;;;;;;4.87;2.10;;;9.30;93.10;;;;;;5435193;26;20554;-86
2024/04/11 08:14:39;;;;;;;3.63;1.90;;;9.40;93.20;;;;;;5434240;26;21012;-85
2024/04/11 08:17:07;;;;;;;2.80;2.03;;;9.40;93.00;;;;;;5437316;26;20558;-85
2024/04/11 08:19:38;;;;;;;3.00;1.80;;;9.50;92.90;;;;;;5435985;26;20629;-85
2024/04/11 08:22:05;;;;;;;3.03;2.07;;;9.60;92.90;;;;;;5433946;26;20678;-85
2024/04/11 08:24:34;;;;;;;5.30;2.10;;;9.80;92.90;;;;;;5435693;26;20715;-83
2024/04/11 08:27:00;;;;;;;2.43;2.20;;;9.90;91.80;;;;;;5437709;26;20554;-84
2024/04/11 08:29:29;;;;;;;4.17;2.00;;;10.00;91.10;;;;;;5435846;26;21125;-84
2024/04/11 08:31:55;;;;;;;3.73;2.00;;;10.00;91.10;;;;;;5466273;26;20646;-84
2024/04/11 08:34:24;;;;;;;4.67;2.50;;;10.10;91.80;;;;;;5469209;26;20600;-86
2024/04/11 08:36:53;;;;;;;3.33;2.07;;;10.20;92.70;;;;;;5472047;26;20648;-85
2024/04/11 08:39:22;;;;;;;3.23;2.13;;;10.40;91.30;;;;;;5471898;26;20679;-85
2024/04/11 08:41:51;;;;;;;4.10;2.20;;;10.40;90.30;;;;;;5473368;26;20640;-83
2024/04/11 08:44:20;;;;;;;6.53;2.33;;;10.50;90.80;;;;;;5470097;26;20666;-85
2024/04/11 08:46:46;;;;;;;3.50;2.00;;;10.60;90.20;;;;;;5470078;26;20564;-84
2024/04/11 08:49:15;;;;;;;3.03;2.33;;;10.70;90.10;;;;;;5473844;26;21112;-85
2024/04/11 08:51:47;;;;;;;4.70;2.70;;;10.70;90.00;;;;;;5473293;26;20656;-85
2024/04/11 08:54:20;;;;;;;6.43;2.73;;;10.80;91.60;;;;;;5457658;26;20557;-85
2024/04/11 08:56:47;;;;;;;5.60;4.07;;;11.20;89.50;;;;;;5471766;26;20564;-86
2024/04/11 08:59:16;;;;;;;6.67;3.03;;;11.20;89.40;;;;;;5471437;26;20557;-86
2024/04/11 09:01:43;;;;;;;5.30;3.30;;;11.30;87.40;;;;;;5473047;26;20621;-86
2024/04/11 09:04:12;;;;;;;4.97;2.47;;;11.30;87.30;;;;;;5469507;26;21108;-86
2024/04/11 09:06:38;;;;;;;3.77;2.93;;;11.30;87.40;;;;;;5470116;26;20689;-86
2024/04/11 09:09:15;;;;;;;4.33;2.50;;;11.50;87.70;;;;;;5472132;26;20611;-86
2024/04/11 09:11:46;;;;;;;3.90;2.50;;;11.50;86.90;;;;;;5457093;26;20986;-86
2024/04/11 09:14:15;;;;;;;4.30;2.50;;;11.60;86.70;;;;;;5469183;26;20762;-86
2024/04/11 09:16:42;;;;;;;5.53;2.67;;;11.60;85.70;;;;;;5471978;26;20564;-86
2024/04/11 09:19:12;;;;;;;4.13;2.17;;;11.70;85.70;;;;;;5472592;26;20617;-86
2024/04/11 09:21:43;;;;;;;2.33;1.90;;;11.80;87.40;;;;;;5471460;26;20613;-85
2024/04/11 09:24:16;;;;;;;5.07;2.50;;;11.90;87.90;;;;;;5461542;26;20652;-86
2024/04/11 09:26:45;;;;;;;3.40;2.13;;;12.00;88.70;;;;;;5472570;26;21322;-85
2024/04/11 09:29:14;;;;;;;2.90;2.43;;;12.10;85.90;;;;;;5472545;26;20613;-84
2024/04/11 09:31:42;;;;;;;9.43;2.43;;;12.20;86.70;;;;;;5462358;26;20709;-84
2024/04/11 09:34:13;;;;;;;4.07;2.30;;;12.20;85.60;;;;;;5468994;26;20549;-85
2024/04/11 09:36:47;;;;;;;3.33;2.50;;;12.30;85.60;;;;;;5448718;26;20555;-84
2024/04/11 09:39:41;;;;;;;6.73;3.03;;;12.30;86.20;;;;;;5471320;26;20568;-86
2024/04/11 09:42:12;;;;;;;5.50;3.47;;;12.50;85.90;;;;;;5432383;26;20741;-83
2024/04/11 09:44:46;;;;;;;6.50;3.00;;;12.60;86.70;;;;;;5445053;26;20608;-80
2024/04/11 09:47:14;;;;;;;8.20;3.20;;;12.70;86.20;;;;;;5442139;26;20615;-83
2024/04/11 09:50:16;;;;;;;6.17;3.73;;;12.80;87.30;;;;;;5468863;26;21204;-83
2024/04/11 09:52:45;;;;;;;5.03;3.40;;;12.90;85.70;;;;;;5447292;26;20559;-82
2024/04/11 09:55:15;;;;;;;3.57;3.13;;;13.00;86.10;;;;;;5464643;26;20919;-83
2024/04/11 09:57:46;;;;;;;10.00;3.83;;;13.10;86.20;;;;;;5468236;26;20665;-83
2024/04/11 10:00:43;;;;;;;4.90;3.50;;;13.20;86.20;;;;;;5471998;26;21184;-82
2024/04/11 10:03:07;;;;;;;6.03;3.17;;;13.20;84.90;;;;;;5462694;26;21207;-82
2024/04/11 10:05:40;;;;;;;4.43;3.10;;;13.30;83.20;;;;;;5470780;26;20572;-82
2024/04/11 10:08:16;;;;;;;4.10;3.10;;;13.30;84.60;;;;;;5466700;26;20625;-83
2024/04/11 10:10:45;;;;;;;6.77;3.53;;;13.40;81.60;;;;;;5439393;26;20665;-83
2024/04/11 10:13:14;;;;;;;3.03;2.73;;;13.50;81.40;;;;;;5447826;26;20598;-82
2024/04/11 10:15:45;;;;;;;5.83;3.10;;;13.50;81.30;;;;;;5452043;26;20722;-82
2024/04/11 10:18:15;;;;;;;7.33;3.00;;;13.60;81.00;;;;;;5453379;26;20573;-82
2024/04/11 10:20:59;;;;;;;8.73;3.23;;;13.70;81.50;;;;;;5451388;26;20554;-82
2024/04/11 10:23:25;;;;;;;6.33;3.63;;;13.90;82.30;;;;;;5435897;26;22244;-82
2024/04/11 10:25:56;;;;;;;4.13;2.70;;;13.90;79.80;;;;;;5462582;26;21311;-82
2024/04/11 10:28:37;;;;;;;6.67;2.73;;;13.90;79.20;;;;;;5474983;26;20613;-83
2024/04/11 10:31:11;;;;;;;6.43;2.90;;;14.00;80.00;;;;;;5467826;26;20565;-82
2024/04/11 10:33:47;;;;;;;4.87;2.87;;;14.10;79.20;;;;;;5464647;26;20674;-83
2024/04/11 10:36:17;;;;;;;6.80;2.30;;;14.10;79.10;;;;;;5455821;26;20885;-82
2024/04/11 10:38:43;;;;;;;7.10;2.67;;;14.20;80.50;;;;;;5475004;26;20611;-82
2024/04/11 10:41:16;;;;;;;3.53;2.70;;;14.30;80.40;;;;;;5471920;26;20603;-82
2024/04/11 10:43:45;;;;;;;4.23;2.80;;;14.50;79.50;;;;;;5471183;26;20557;-82
2024/04/11 10:46:14;;;;;;;8.27;2.70;;;14.50;78.50;;;;;;5462713;26;20560;-82
2024/04/11 10:48:44;;;;;;;5.90;3.53;;;14.50;77.60;;;;;;5471420;26;20552;-83
2024/04/11 10:51:13;;;;;;;3.27;2.33;;;14.60;76.60;;;;;;5462783;26;20635;-82
2024/04/11 10:53:47;;;;;;;13.07;3.00;;;14.60;76.50;;;;;;5471721;26;20607;-82
2024/04/11 10:56:22;;;;;;;4.30;2.20;;;14.70;76.10;;;;;;5465260;26;20560;-83
2024/04/11 10:58:53;;;;;;;4.10;2.50;;;14.70;76.20;;;;;;5462037;26;20563;-81
2024/04/11 11:01:26;;;;;;;6.33;2.43;;;14.80;77.00;;;;;;5471368;26;20925;-83
2024/04/11 11:03:57;;;;;;;5.50;2.30;;;15.00;78.00;;;;;;5464098;26;20594;-81
2024/04/11 11:06:34;;;;;;;5.03;2.00;;;15.10;76.50;;;;;;5472598;26;20655;-82
2024/04/11 11:09:14;;;;;;;5.13;2.43;;;15.20;74.90;;;;;;5474667;26;20560;-78
2024/04/11 11:11:44;;;;;;;5.77;3.40;;;15.20;74.80;;;;;;5444241;26;20559;-78
2024/04/11 11:14:17;;;;;;;2.87;1.90;;;15.20;75.50;;;;;;5438867;26;20562;-79
2024/04/11 11:16:47;;;;;;;5.90;2.60;;;15.30;76.30;;;;;;5460447;26;20548;-78
2024/04/11 11:19:13;;;;;;;3.87;2.67;;;15.40;76.60;;;;;;5469392;26;20577;-79
2024/04/11 11:21:42;;;;;;;5.43;3.07;;;15.50;76.50;;;;;;5470373;26;21269;-79
2024/04/11 11:24:14;;;;;;;3.93;2.67;;;15.60;75.70;;;;;;5473590;26;21207;-79
2024/04/11 11:26:46;;;;;;;5.50;2.57;;;15.60;74.70;;;;;;5473631;26;20639;-78
2024/04/11 11:29:20;;;;;;;3.40;2.53;;;15.60;74.90;;;;;;5470761;26;20608;-78
2024/04/11 11:31:51;;;;;;;3.57;2.40;;;15.70;75.90;;;;;;5454594;26;21100;-78
2024/04/11 11:34:27;;;;;;;5.40;2.43;;;15.70;73.40;;;;;;5472918;26;20568;-78
2024/04/11 11:36:59;;;;;;;3.40;2.20;;;15.80;73.90;;;;;;5465081;26;20564;-78
2024/04/11 11:39:26;;;;;;;2.87;2.30;;;15.90;74.10;;;;;;5458882;26;20991;-79
2024/04/11 11:42:08;;;;;;;4.17;2.30;;;15.90;73.60;;;;;;5470173;26;20674;-79
2024/04/11 11:47:35;;;;;;;6.53;2.03;;;16.10;73.30;;;;;;5448752;26;20557;-79
2024/04/11 11:50:07;;;;;;;3.90;2.30;;;16.10;73.30;;;;;;5460317;26;20730;-79
2024/04/11 11:52:37;;;;;;;2.80;1.87;;;16.00;72.00;;;;;;5472173;26;20553;-78
2024/04/11 11:55:04;;;;;;;4.90;2.53;;;15.90;72.20;;;;;;5473443;26;20697;-79
2024/04/11 11:57:39;;;;;;;5.30;2.07;;;16.00;73.80;;;;;;5473320;26;20616;-78
2024/04/11 12:00:19;;;;;;;2.70;1.70;;;16.20;73.70;;;;;;5464481;26;20665;-79
2024/04/11 12:02:51;;;;;;;4.53;2.00;;;16.30;72.80;;;;;;5465358;26;20560;-80
2024/04/11 12:05:23;;;;;;;1.90;1.80;;;16.30;73.30;;;;;;5429894;26;20614;-79
2024/04/11 12:07:54;;;;;;;3.33;2.40;;;16.30;71.20;;;;;;5436455;26;20575;-77
2024/04/11 12:10:21;;;;;;;3.07;1.77;;;16.40;70.40;;;;;;5444722;26;20622;-80
2024/04/11 12:12:50;;;;;;;5.50;2.43;;;16.20;70.40;;;;;;5455491;26;20733;-76
2024/04/11 12:15:19;;;;;;;3.43;2.47;;;16.30;72.10;;;;;;5442036;26;20910;-77
2024/04/11 12:17:48;;;;;;;4.93;1.90;;;16.30;72.50;;;;;;5456134;26;21114;-80
2024/04/11 12:20:15;;;;;;;3.67;2.00;;;16.40;71.00;;;;;;5457137;26;21164;-80
2024/04/11 12:22:44;;;;;;;4.83;2.07;;;16.50;70.20;;;;;;5455765;26;20630;-80
2024/04/11 12:25:10;;;;;;;2.17;1.70;;;16.50;71.10;;;;;;5456703;26;21134;-79
2024/04/11 12:27:39;;;;;;;2.80;2.03;;;16.60;69.80;;;;;;5457360;26;20890;-76
2024/04/11 12:30:07;;;;;;;5.30;2.30;;;16.70;70.00;;;;;;5456890;26;20563;-80
2024/04/11 12:32:41;;;;;;;6.13;2.37;;;16.70;69.70;;;;;;5453760;26;20571;-79
2024/04/11 12:35:08;;;;;;;3.57;2.00;;;16.70;70.10;;;;;;5445516;26;21197;-80
2024/04/11 12:37:38;;;;;;;3.90;1.80;;;16.70;69.70;;;;;;5453708;26;20566;-80
2024/04/11 12:40:06;;;;;;;3.63;1.93;;;16.90;71.30;;;;;;5447790;26;20616;-80
2024/04/11 12:42:38;;;;;;;4.30;1.80;;;16.90;69.60;;;;;;5456683;26;20661;-80
2024/04/11 12:45:07;;;;;;;3.57;1.87;;;17.00;68.70;;;;;;5447229;26;20574;-80
2024/04/11 12:47:48;;;;;;;3.53;1.53;;;17.00;70.00;;;;;;5454730;26;20566;-83
2024/04/11 12:50:14;;;;;;;3.63;1.80;;;17.10;69.60;;;;;;5458647;26;20564;-81
2024/04/11 12:52:49;;;;;;;4.53;2.00;;;17.10;67.90;;;;;;5454469;26;20622;-79
2024/04/11 12:55:24;;;;;;;3.00;1.87;;;17.20;69.00;;;;;;5455420;26;21039;-80
2024/04/11 12:57:57;;;;;;;5.43;2.10;;;17.30;69.30;;;;;;5447741;26;21234;-79
2024/04/11 13:00:34;;;;;;;2.60;1.80;;;17.30;68.10;;;;;;5435713;26;20604;-79
2024/04/11 13:03:15;;;;;;;3.30;1.40;;;17.30;68.60;;;;;;5444398;26;20557;-79
2024/04/11 13:05:51;;;;;;;4.77;2.20;;;17.30;69.10;;;;;;5447628;26;20563;-81
2024/04/11 13:08:20;;;;;;;5.53;2.03;;;17.40;69.50;;;;;;5418921;26;20554;-80
2024/04/11 13:10:49;;;;;;;2.93;2.03;;;17.40;69.20;;;;;;5431930;26;20554;-80
2024/04/11 13:13:18;;;;;;;4.43;1.90;;;17.50;70.20;;;;;;5431123;26;20607;-81